sensor_id;sensor_type;location;lat;lon;timestamp;P1;durP1;ratioP1;P2;durP2;ratioP2
53879;SDS011;39791;53.184;5.486;2023-01-04T00:00:31;10.40;;;3.70;;
53879;SDS011;39791;53.184;5.486;2023-01-04T00:02:56;6.03;;;3.15;;
53879;SDS011;39791;53.184;5.486;2023-01-04T00:05:22;8.18;;;3.30;;
53879;SDS011;39791;53.184;5.486;2023-01-04T00:07:47;7.40;;;4.28;;
53879;SDS011;39791;53.184;5.486;2023-01-04T00:10:13;9.20;;;3.40;;
53879;SDS011;39791;53.184;5.486;2023-01-04T00:12:38;5.78;;;3.22;;
53879;SDS011;39791;53.184;5.486;2023-01-04T00:15:04;12.40;;;4.20;;
53879;SDS011;39791;53.184;5.486;2023-01-04T00:17:30;7.20;;;3.60;;
53879;SDS011;39791;53.184;5.486;2023-01-04T00:19:56;10.63;;;3.72;;
53879;SDS011;39791;53.184;5.486;2023-01-04T00:22:21;6.35;;;3.88;;
53879;SDS011;39791;53.184;5.486;2023-01-04T00:24:47;11.52;;;3.75;;
53879;SDS011;39791;53.184;5.486;2023-01-04T00:27:12;5.65;;;3.92;;
53879;SDS011;39791;53.184;5.486;2023-01-04T00:29:38;6.13;;;3.03;;
53879;SDS011;39791;53.184;5.486;2023-01-04T00:32:04;9.25;;;3.42;;
53879;SDS011;39791;53.184;5.486;2023-01-04T00:34:29;8.45;;;3.20;;
53879;SDS011;39791;53.184;5.486;2023-01-04T00:36:55;9.57;;;3.72;;
53879;SDS011;39791;53.184;5.486;2023-01-04T00:39:20;6.35;;;3.00;;
53879;SDS011;39791;53.184;5.486;2023-01-04T00:41:47;5.68;;;3.10;;
53879;SDS011;39791;53.184;5.486;2023-01-04T00:44:14;5.55;;;2.92;;
53879;SDS011;39791;53.184;5.486;2023-01-04T00:46:40;11.52;;;3.30;;
53879;SDS011;39791;53.184;5.486;2023-01-04T00:49:07;9.32;;;3.13;;
53879;SDS011;39791;53.184;5.486;2023-01-04T00:51:34;7.72;;;3.30;;
53879;SDS011;39791;53.184;5.486;2023-01-04T00:54:01;6.43;;;3.30;;
53879;SDS011;39791;53.184;5.486;2023-01-04T00:56:28;8.30;;;3.60;;
53879;SDS011;39791;53.184;5.486;2023-01-04T00:58:55;3.70;;;2.95;;
53879;SDS011;39791;53.184;5.486;2023-01-04T01:01:22;6.50;;;3.33;;
53879;SDS011;39791;53.184;5.486;2023-01-04T01:03:51;6.40;;;3.30;;
53879;SDS011;39791;53.184;5.486;2023-01-04T01:06:20;8.27;;;3.60;;
53879;SDS011;39791;53.184;5.486;2023-01-04T01:08:48;7.78;;;3.30;;
53879;SDS011;39791;53.184;5.486;2023-01-04T01:11:14;3.72;;;3.33;;
53879;SDS011;39791;53.184;5.486;2023-01-04T01:13:40;7.80;;;3.00;;
53879;SDS011;39791;53.184;5.486;2023-01-04T01:16:06;4.97;;;2.85;;
53879;SDS011;39791;53.184;5.486;2023-01-04T01:18:34;4.50;;;2.50;;
53879;SDS011;39791;53.184;5.486;2023-01-04T01:21:06;4.65;;;2.85;;
53879;SDS011;39791;53.184;5.486;2023-01-04T01:23:34;5.93;;;2.92;;
53879;SDS011;39791;53.184;5.486;2023-01-04T01:26:00;8.95;;;2.97;;
53879;SDS011;39791;53.184;5.486;2023-01-04T01:28:27;6.07;;;3.03;;
53879;SDS011;39791;53.184;5.486;2023-01-04T01:30:53;6.13;;;2.58;;
53879;SDS011;39791;53.184;5.486;2023-01-04T01:33:18;7.55;;;2.65;;
53879;SDS011;39791;53.184;5.486;2023-01-04T01:35:44;3.35;;;2.45;;
53879;SDS011;39791;53.184;5.486;2023-01-04T01:38:10;3.38;;;2.67;;
53879;SDS011;39791;53.184;5.486;2023-01-04T01:40:39;5.13;;;2.80;;
53879;SDS011;39791;53.184;5.486;2023-01-04T01:43:10;6.30;;;2.25;;
53879;SDS011;39791;53.184;5.486;2023-01-04T01:45:44;3.58;;;2.30;;
53879;SDS011;39791;53.184;5.486;2023-01-04T01:48:14;4.70;;;2.40;;
53879;SDS011;39791;53.184;5.486;2023-01-04T01:50:47;4.85;;;2.90;;
53879;SDS011;39791;53.184;5.486;2023-01-04T01:53:15;3.55;;;2.42;;
53879;SDS011;39791;53.184;5.486;2023-01-04T01:55:41;3.10;;;2.10;;
53879;SDS011;39791;53.184;5.486;2023-01-04T01:58:10;2.08;;;1.85;;
53879;SDS011;39791;53.184;5.486;2023-01-04T02:00:42;1.80;;;1.60;;
53879;SDS011;39791;53.184;5.486;2023-01-04T02:05:41;2.65;;;1.92;;
53879;SDS011;39791;53.184;5.486;2023-01-04T02:08:08;2.15;;;1.70;;
53879;SDS011;39791;53.184;5.486;2023-01-04T02:10:34;4.13;;;2.30;;
53879;SDS011;39791;53.184;5.486;2023-01-04T02:13:08;7.50;;;2.13;;
53879;SDS011;39791;53.184;5.486;2023-01-04T02:15:47;2.40;;;1.83;;
53879;SDS011;39791;53.184;5.486;2023-01-04T02:18:17;3.05;;;2.17;;
53879;SDS011;39791;53.184;5.486;2023-01-04T02:20:57;1.83;;;1.67;;
53879;SDS011;39791;53.184;5.486;2023-01-04T02:26:43;4.30;;;1.77;;
53879;SDS011;39791;53.184;5.486;2023-01-04T02:32:16;2.30;;;1.80;;
53879;SDS011;39791;53.184;5.486;2023-01-04T02:35:20;3.08;;;1.80;;
53879;SDS011;39791;53.184;5.486;2023-01-04T02:37:56;3.08;;;2.35;;
53879;SDS011;39791;53.184;5.486;2023-01-04T02:40:27;2.15;;;1.80;;
53879;SDS011;39791;53.184;5.486;2023-01-04T02:46:07;2.67;;;2.03;;
53879;SDS011;39791;53.184;5.486;2023-01-04T02:48:48;5.45;;;2.05;;
53879;SDS011;39791;53.184;5.486;2023-01-04T02:51:34;5.43;;;3.03;;
53879;SDS011;39791;53.184;5.486;2023-01-04T02:54:08;7.25;;;3.00;;
53879;SDS011;39791;53.184;5.486;2023-01-04T03:05:11;6.15;;;2.05;;
53879;SDS011;39791;53.184;5.486;2023-01-04T03:08:35;9.65;;;2.22;;
53879;SDS011;39791;53.184;5.486;2023-01-04T03:11:05;9.30;;;2.17;;
53879;SDS011;39791;53.184;5.486;2023-01-04T03:13:51;9.50;;;2.20;;
53879;SDS011;39791;53.184;5.486;2023-01-04T03:16:21;4.82;;;2.80;;
53879;SDS011;39791;53.184;5.486;2023-01-04T03:18:50;6.82;;;2.30;;
53879;SDS011;39791;53.184;5.486;2023-01-04T03:21:20;10.65;;;2.05;;
53879;SDS011;39791;53.184;5.486;2023-01-04T03:23:49;7.90;;;2.33;;
53879;SDS011;39791;53.184;5.486;2023-01-04T03:26:39;10.73;;;2.67;;
53879;SDS011;39791;53.184;5.486;2023-01-04T03:32:22;15.40;;;4.32;;
53879;SDS011;39791;53.184;5.486;2023-01-04T03:35:23;15.05;;;3.50;;
53879;SDS011;39791;53.184;5.486;2023-01-04T03:38:04;11.10;;;3.13;;
53879;SDS011;39791;53.184;5.486;2023-01-04T03:40:58;12.23;;;3.10;;
53879;SDS011;39791;53.184;5.486;2023-01-04T03:44:30;8.73;;;2.55;;
53879;SDS011;39791;53.184;5.486;2023-01-04T03:47:02;8.15;;;2.40;;
53879;SDS011;39791;53.184;5.486;2023-01-04T03:49:51;10.48;;;3.75;;
53879;SDS011;39791;53.184;5.486;2023-01-04T03:52:25;10.32;;;3.20;;
53879;SDS011;39791;53.184;5.486;2023-01-04T03:54:53;9.65;;;3.10;;
53879;SDS011;39791;53.184;5.486;2023-01-04T03:57:21;13.68;;;3.25;;
53879;SDS011;39791;53.184;5.486;2023-01-04T03:59:49;16.10;;;2.85;;
53879;SDS011;39791;53.184;5.486;2023-01-04T04:02:23;15.38;;;3.60;;
53879;SDS011;39791;53.184;5.486;2023-01-04T04:04:52;13.32;;;3.88;;
53879;SDS011;39791;53.184;5.486;2023-01-04T04:07:36;10.65;;;2.70;;
53879;SDS011;39791;53.184;5.486;2023-01-04T04:10:20;16.30;;;4.07;;
53879;SDS011;39791;53.184;5.486;2023-01-04T04:12:45;13.20;;;3.40;;
53879;SDS011;39791;53.184;5.486;2023-01-04T04:15:12;12.15;;;3.05;;
53879;SDS011;39791;53.184;5.486;2023-01-04T04:17:39;15.70;;;3.70;;
53879;SDS011;39791;53.184;5.486;2023-01-04T04:20:04;11.02;;;3.55;;
53879;SDS011;39791;53.184;5.486;2023-01-04T04:22:30;13.80;;;2.70;;
53879;SDS011;39791;53.184;5.486;2023-01-04T04:24:56;9.73;;;2.78;;
53879;SDS011;39791;53.184;5.486;2023-01-04T04:27:22;8.85;;;2.83;;
53879;SDS011;39791;53.184;5.486;2023-01-04T04:29:47;14.60;;;3.53;;
53879;SDS011;39791;53.184;5.486;2023-01-04T04:32:13;12.80;;;2.92;;
53879;SDS011;39791;53.184;5.486;2023-01-04T04:34:38;11.95;;;3.15;;
53879;SDS011;39791;53.184;5.486;2023-01-04T04:37:04;11.25;;;2.70;;
53879;SDS011;39791;53.184;5.486;2023-01-04T04:39:30;12.45;;;3.05;;
53879;SDS011;39791;53.184;5.486;2023-01-04T04:41:56;13.48;;;3.30;;
53879;SDS011;39791;53.184;5.486;2023-01-04T04:44:21;18.48;;;3.28;;
53879;SDS011;39791;53.184;5.486;2023-01-04T04:46:47;26.58;;;3.90;;
53879;SDS011;39791;53.184;5.486;2023-01-04T04:49:13;13.98;;;3.83;;
53879;SDS011;39791;53.184;5.486;2023-01-04T04:51:40;13.57;;;3.60;;
53879;SDS011;39791;53.184;5.486;2023-01-04T04:54:07;7.05;;;1.98;;
53879;SDS011;39791;53.184;5.486;2023-01-04T04:56:34;11.70;;;2.90;;
53879;SDS011;39791;53.184;5.486;2023-01-04T04:59:01;9.15;;;2.85;;
53879;SDS011;39791;53.184;5.486;2023-01-04T05:01:28;6.35;;;2.22;;
53879;SDS011;39791;53.184;5.486;2023-01-04T05:03:54;11.32;;;2.53;;
53879;SDS011;39791;53.184;5.486;2023-01-04T05:06:20;6.43;;;2.30;;
53879;SDS011;39791;53.184;5.486;2023-01-04T05:08:46;8.93;;;2.72;;
53879;SDS011;39791;53.184;5.486;2023-01-04T05:11:12;12.48;;;2.35;;
53879;SDS011;39791;53.184;5.486;2023-01-04T05:13:37;9.80;;;2.05;;
53879;SDS011;39791;53.184;5.486;2023-01-04T05:16:04;9.75;;;2.15;;
53879;SDS011;39791;53.184;5.486;2023-01-04T05:18:31;12.60;;;2.97;;
53879;SDS011;39791;53.184;5.486;2023-01-04T05:20:56;6.60;;;2.20;;
53879;SDS011;39791;53.184;5.486;2023-01-04T05:23:22;11.10;;;2.30;;
53879;SDS011;39791;53.184;5.486;2023-01-04T05:25:55;6.28;;;1.98;;
53879;SDS011;39791;53.184;5.486;2023-01-04T05:28:24;6.78;;;2.03;;
53879;SDS011;39791;53.184;5.486;2023-01-04T05:30:50;13.77;;;1.95;;
53879;SDS011;39791;53.184;5.486;2023-01-04T05:33:18;6.32;;;1.77;;
53879;SDS011;39791;53.184;5.486;2023-01-04T05:35:44;12.60;;;2.38;;
53879;SDS011;39791;53.184;5.486;2023-01-04T05:38:10;9.43;;;2.30;;
53879;SDS011;39791;53.184;5.486;2023-01-04T05:40:35;6.85;;;2.15;;
53879;SDS011;39791;53.184;5.486;2023-01-04T05:43:01;9.40;;;2.47;;
53879;SDS011;39791;53.184;5.486;2023-01-04T05:45:27;20.08;;;3.85;;
53879;SDS011;39791;53.184;5.486;2023-01-04T05:47:52;13.82;;;3.65;;
53879;SDS011;39791;53.184;5.486;2023-01-04T05:50:19;11.50;;;3.22;;
53879;SDS011;39791;53.184;5.486;2023-01-04T05:52:46;13.13;;;3.58;;
53879;SDS011;39791;53.184;5.486;2023-01-04T05:55:12;15.45;;;3.60;;
53879;SDS011;39791;53.184;5.486;2023-01-04T05:57:38;25.45;;;4.75;;
53879;SDS011;39791;53.184;5.486;2023-01-04T06:00:04;18.80;;;4.60;;
53879;SDS011;39791;53.184;5.486;2023-01-04T06:02:31;38.10;;;6.28;;
53879;SDS011;39791;53.184;5.486;2023-01-04T06:04:57;32.45;;;6.18;;
53879;SDS011;39791;53.184;5.486;2023-01-04T06:07:24;27.83;;;5.57;;
53879;SDS011;39791;53.184;5.486;2023-01-04T06:09:50;29.30;;;6.35;;
53879;SDS011;39791;53.184;5.486;2023-01-04T06:12:16;39.70;;;6.65;;
53879;SDS011;39791;53.184;5.486;2023-01-04T06:14:42;35.65;;;6.15;;
53879;SDS011;39791;53.184;5.486;2023-01-04T06:17:08;46.80;;;7.10;;
53879;SDS011;39791;53.184;5.486;2023-01-04T06:19:33;31.60;;;6.00;;
53879;SDS011;39791;53.184;5.486;2023-01-04T06:21:59;38.97;;;6.38;;
53879;SDS011;39791;53.184;5.486;2023-01-04T06:24:25;38.80;;;5.88;;
53879;SDS011;39791;53.184;5.486;2023-01-04T06:26:51;36.53;;;5.80;;
53879;SDS011;39791;53.184;5.486;2023-01-04T06:29:16;26.65;;;5.40;;
53879;SDS011;39791;53.184;5.486;2023-01-04T06:31:42;25.60;;;5.75;;
53879;SDS011;39791;53.184;5.486;2023-01-04T06:34:11;34.20;;;6.65;;
53879;SDS011;39791;53.184;5.486;2023-01-04T06:36:39;39.67;;;7.80;;
53879;SDS011;39791;53.184;5.486;2023-01-04T06:39:05;33.80;;;6.20;;
53879;SDS011;39791;53.184;5.486;2023-01-04T06:41:31;28.27;;;6.43;;
53879;SDS011;39791;53.184;5.486;2023-01-04T06:43:57;27.08;;;5.13;;
53879;SDS011;39791;53.184;5.486;2023-01-04T06:46:23;42.40;;;5.95;;
53879;SDS011;39791;53.184;5.486;2023-01-04T06:48:48;45.70;;;6.68;;
53879;SDS011;39791;53.184;5.486;2023-01-04T06:51:14;35.97;;;6.13;;
53879;SDS011;39791;53.184;5.486;2023-01-04T06:53:40;29.10;;;5.65;;
53879;SDS011;39791;53.184;5.486;2023-01-04T06:56:06;29.83;;;6.88;;
53879;SDS011;39791;53.184;5.486;2023-01-04T06:58:33;38.40;;;6.68;;
53879;SDS011;39791;53.184;5.486;2023-01-04T07:00:59;39.30;;;7.30;;
53879;SDS011;39791;53.184;5.486;2023-01-04T07:03:25;39.58;;;6.07;;
53879;SDS011;39791;53.184;5.486;2023-01-04T07:05:51;32.67;;;6.70;;
53879;SDS011;39791;53.184;5.486;2023-01-04T07:08:17;32.20;;;5.68;;
53879;SDS011;39791;53.184;5.486;2023-01-04T07:10:43;29.90;;;5.03;;
53879;SDS011;39791;53.184;5.486;2023-01-04T07:13:09;36.85;;;6.20;;
53879;SDS011;39791;53.184;5.486;2023-01-04T07:15:35;28.85;;;5.10;;
53879;SDS011;39791;53.184;5.486;2023-01-04T07:18:00;27.08;;;5.13;;
53879;SDS011;39791;53.184;5.486;2023-01-04T07:20:26;34.25;;;6.03;;
53879;SDS011;39791;53.184;5.486;2023-01-04T07:22:52;31.88;;;5.38;;
53879;SDS011;39791;53.184;5.486;2023-01-04T07:25:18;25.75;;;5.30;;
53879;SDS011;39791;53.184;5.486;2023-01-04T07:27:43;28.67;;;5.00;;
53879;SDS011;39791;53.184;5.486;2023-01-04T07:30:14;22.38;;;4.43;;
53879;SDS011;39791;53.184;5.486;2023-01-04T07:32:39;30.98;;;5.47;;
53879;SDS011;39791;53.184;5.486;2023-01-04T07:35:05;35.85;;;5.78;;
53879;SDS011;39791;53.184;5.486;2023-01-04T07:37:31;32.60;;;5.65;;
53879;SDS011;39791;53.184;5.486;2023-01-04T07:39:56;30.63;;;5.13;;
53879;SDS011;39791;53.184;5.486;2023-01-04T07:42:22;25.85;;;4.03;;
53879;SDS011;39791;53.184;5.486;2023-01-04T07:44:47;26.42;;;4.68;;
53879;SDS011;39791;53.184;5.486;2023-01-04T07:47:13;34.88;;;5.10;;
53879;SDS011;39791;53.184;5.486;2023-01-04T07:49:39;27.65;;;5.93;;
53879;SDS011;39791;53.184;5.486;2023-01-04T07:52:04;27.67;;;4.75;;
53879;SDS011;39791;53.184;5.486;2023-01-04T07:54:30;37.60;;;5.90;;
53879;SDS011;39791;53.184;5.486;2023-01-04T07:56:55;33.15;;;5.68;;
53879;SDS011;39791;53.184;5.486;2023-01-04T07:59:21;28.67;;;5.25;;
53879;SDS011;39791;53.184;5.486;2023-01-04T08:01:47;38.75;;;5.90;;
53879;SDS011;39791;53.184;5.486;2023-01-04T08:04:14;36.28;;;7.55;;
53879;SDS011;39791;53.184;5.486;2023-01-04T08:06:41;32.25;;;6.25;;
53879;SDS011;39791;53.184;5.486;2023-01-04T08:09:09;37.08;;;6.13;;
53879;SDS011;39791;53.184;5.486;2023-01-04T08:11:35;29.52;;;6.72;;
53879;SDS011;39791;53.184;5.486;2023-01-04T08:14:01;30.02;;;7.10;;
53879;SDS011;39791;53.184;5.486;2023-01-04T08:16:31;33.78;;;6.75;;
53879;SDS011;39791;53.184;5.486;2023-01-04T08:19:02;31.42;;;6.53;;
53879;SDS011;39791;53.184;5.486;2023-01-04T08:21:34;42.13;;;7.35;;
53879;SDS011;39791;53.184;5.486;2023-01-04T08:24:00;33.60;;;6.35;;
53879;SDS011;39791;53.184;5.486;2023-01-04T08:26:27;34.35;;;6.22;;
53879;SDS011;39791;53.184;5.486;2023-01-04T08:28:53;41.28;;;8.02;;
53879;SDS011;39791;53.184;5.486;2023-01-04T08:31:21;51.40;;;8.35;;
53879;SDS011;39791;53.184;5.486;2023-01-04T08:33:51;40.28;;;6.63;;
53879;SDS011;39791;53.184;5.486;2023-01-04T08:36:23;39.25;;;7.85;;
53879;SDS011;39791;53.184;5.486;2023-01-04T08:38:51;49.38;;;8.15;;
53879;SDS011;39791;53.184;5.486;2023-01-04T08:41:18;48.78;;;7.32;;
53879;SDS011;39791;53.184;5.486;2023-01-04T08:43:44;47.17;;;8.02;;
53879;SDS011;39791;53.184;5.486;2023-01-04T08:46:11;46.35;;;8.13;;
53879;SDS011;39791;53.184;5.486;2023-01-04T08:48:37;38.85;;;7.53;;
53879;SDS011;39791;53.184;5.486;2023-01-04T08:51:04;52.78;;;8.65;;
53879;SDS011;39791;53.184;5.486;2023-01-04T08:53:32;53.50;;;7.18;;
53879;SDS011;39791;53.184;5.486;2023-01-04T08:55:57;31.77;;;7.45;;
53879;SDS011;39791;53.184;5.486;2023-01-04T08:58:25;53.25;;;7.50;;
53879;SDS011;39791;53.184;5.486;2023-01-04T09:00:51;66.93;;;9.25;;
53879;SDS011;39791;53.184;5.486;2023-01-04T09:03:17;60.42;;;8.55;;
53879;SDS011;39791;53.184;5.486;2023-01-04T09:05:42;46.38;;;7.57;;
53879;SDS011;39791;53.184;5.486;2023-01-04T09:08:09;51.38;;;8.30;;
53879;SDS011;39791;53.184;5.486;2023-01-04T09:10:38;55.95;;;9.07;;
53879;SDS011;39791;53.184;5.486;2023-01-04T09:13:04;59.50;;;8.43;;
53879;SDS011;39791;53.184;5.486;2023-01-04T09:15:30;50.92;;;8.43;;
53879;SDS011;39791;53.184;5.486;2023-01-04T09:17:56;67.57;;;7.85;;
53879;SDS011;39791;53.184;5.486;2023-01-04T09:20:22;45.60;;;7.53;;
53879;SDS011;39791;53.184;5.486;2023-01-04T09:22:47;52.08;;;8.10;;
53879;SDS011;39791;53.184;5.486;2023-01-04T09:25:13;56.47;;;8.77;;
53879;SDS011;39791;53.184;5.486;2023-01-04T09:27:40;46.45;;;7.82;;
53879;SDS011;39791;53.184;5.486;2023-01-04T09:30:05;49.97;;;8.27;;
53879;SDS011;39791;53.184;5.486;2023-01-04T09:32:32;54.88;;;9.35;;
53879;SDS011;39791;53.184;5.486;2023-01-04T09:34:57;57.53;;;7.88;;
53879;SDS011;39791;53.184;5.486;2023-01-04T09:37:23;41.67;;;7.00;;
53879;SDS011;39791;53.184;5.486;2023-01-04T09:39:48;54.53;;;8.90;;
53879;SDS011;39791;53.184;5.486;2023-01-04T09:42:37;49.60;;;6.93;;
53879;SDS011;39791;53.184;5.486;2023-01-04T09:45:10;50.58;;;9.55;;
53879;SDS011;39791;53.184;5.486;2023-01-04T09:50:09;53.33;;;9.60;;
53879;SDS011;39791;53.184;5.486;2023-01-04T09:52:48;59.88;;;7.93;;
53879;SDS011;39791;53.184;5.486;2023-01-04T09:55:24;45.50;;;7.43;;
53879;SDS011;39791;53.184;5.486;2023-01-04T09:57:59;51.65;;;8.68;;
53879;SDS011;39791;53.184;5.486;2023-01-04T10:00:36;52.10;;;8.10;;
53879;SDS011;39791;53.184;5.486;2023-01-04T10:05:47;55.80;;;8.13;;
53879;SDS011;39791;53.184;5.486;2023-01-04T10:08:15;42.25;;;7.22;;
53879;SDS011;39791;53.184;5.486;2023-01-04T10:10:45;51.63;;;8.13;;
53879;SDS011;39791;53.184;5.486;2023-01-04T10:16:14;40.03;;;7.65;;
53879;SDS011;39791;53.184;5.486;2023-01-04T10:24:37;51.97;;;8.65;;
53879;SDS011;39791;53.184;5.486;2023-01-04T10:27:33;53.53;;;9.15;;
53879;SDS011;39791;53.184;5.486;2023-01-04T10:35:35;41.20;;;7.07;;
53879;SDS011;39791;53.184;5.486;2023-01-04T10:38:02;54.35;;;8.95;;
53879;SDS011;39791;53.184;5.486;2023-01-04T10:40:34;37.97;;;6.22;;
53879;SDS011;39791;53.184;5.486;2023-01-04T10:48:41;41.78;;;7.80;;
53879;SDS011;39791;53.184;5.486;2023-01-04T10:51:17;53.50;;;8.65;;
53879;SDS011;39791;53.184;5.486;2023-01-04T10:53:56;36.88;;;7.70;;
53879;SDS011;39791;53.184;5.486;2023-01-04T11:02:18;61.38;;;10.25;;
53879;SDS011;39791;53.184;5.486;2023-01-04T11:04:54;55.58;;;9.05;;
53879;SDS011;39791;53.184;5.486;2023-01-04T11:07:38;66.72;;;10.60;;
53879;SDS011;39791;53.184;5.486;2023-01-04T11:10:19;74.03;;;10.73;;
53879;SDS011;39791;53.184;5.486;2023-01-04T11:12:54;56.55;;;9.15;;
53879;SDS011;39791;53.184;5.486;2023-01-04T11:15:20;52.30;;;8.35;;
53879;SDS011;39791;53.184;5.486;2023-01-04T11:17:45;52.00;;;9.88;;
53879;SDS011;39791;53.184;5.486;2023-01-04T11:20:12;34.85;;;7.20;;
53879;SDS011;39791;53.184;5.486;2023-01-04T11:22:42;62.95;;;8.15;;
53879;SDS011;39791;53.184;5.486;2023-01-04T11:25:17;47.25;;;9.48;;
53879;SDS011;39791;53.184;5.486;2023-01-04T11:27:53;54.83;;;8.05;;
53879;SDS011;39791;53.184;5.486;2023-01-04T11:30:24;49.42;;;7.60;;
53879;SDS011;39791;53.184;5.486;2023-01-04T11:33:07;60.75;;;9.18;;
53879;SDS011;39791;53.184;5.486;2023-01-04T11:35:49;49.75;;;8.02;;
53879;SDS011;39791;53.184;5.486;2023-01-04T11:38:17;43.55;;;7.47;;
53879;SDS011;39791;53.184;5.486;2023-01-04T11:43:39;39.35;;;7.70;;
53879;SDS011;39791;53.184;5.486;2023-01-04T11:46:21;38.97;;;6.95;;
53879;SDS011;39791;53.184;5.486;2023-01-04T11:48:51;43.45;;;7.03;;
53879;SDS011;39791;53.184;5.486;2023-01-04T11:54:38;37.65;;;6.07;;
53879;SDS011;39791;53.184;5.486;2023-01-04T11:56:38;37.55;;;6.63;;
53879;SDS011;39791;53.184;5.486;2023-01-04T11:59:20;41.58;;;6.57;;
53879;SDS011;39791;53.184;5.486;2023-01-04T12:01:46;39.45;;;5.90;;
53879;SDS011;39791;53.184;5.486;2023-01-04T12:04:21;41.72;;;6.72;;
53879;SDS011;39791;53.184;5.486;2023-01-04T12:06:50;36.55;;;7.00;;
53879;SDS011;39791;53.184;5.486;2023-01-04T12:09:19;37.70;;;6.93;;
53879;SDS011;39791;53.184;5.486;2023-01-04T12:11:46;31.33;;;7.20;;
53879;SDS011;39791;53.184;5.486;2023-01-04T12:17:24;32.35;;;6.15;;
53879;SDS011;39791;53.184;5.486;2023-01-04T12:19:56;44.47;;;7.43;;
53879;SDS011;39791;53.184;5.486;2023-01-04T12:22:35;39.90;;;7.03;;
53879;SDS011;39791;53.184;5.486;2023-01-04T12:25:03;34.40;;;5.70;;
53879;SDS011;39791;53.184;5.486;2023-01-04T12:27:49;36.63;;;5.93;;
53879;SDS011;39791;53.184;5.486;2023-01-04T12:36:00;41.10;;;6.72;;
53879;SDS011;39791;53.184;5.486;2023-01-04T12:39:25;42.28;;;6.80;;
53879;SDS011;39791;53.184;5.486;2023-01-04T12:41:23;50.10;;;7.32;;
53879;SDS011;39791;53.184;5.486;2023-01-04T12:43:58;37.42;;;6.85;;
53879;SDS011;39791;53.184;5.486;2023-01-04T12:54:47;56.75;;;8.60;;
53879;SDS011;39791;53.184;5.486;2023-01-04T13:02:23;45.28;;;7.80;;
53879;SDS011;39791;53.184;5.486;2023-01-04T13:07:52;48.38;;;8.52;;
53879;SDS011;39791;53.184;5.486;2023-01-04T13:18:46;54.15;;;8.63;;
53879;SDS011;39791;53.184;5.486;2023-01-04T13:21:15;43.40;;;7.55;;
53879;SDS011;39791;53.184;5.486;2023-01-04T13:23:47;49.90;;;9.20;;
53879;SDS011;39791;53.184;5.486;2023-01-04T13:29:06;54.17;;;9.05;;
53879;SDS011;39791;53.184;5.486;2023-01-04T13:31:35;50.47;;;7.22;;
53879;SDS011;39791;53.184;5.486;2023-01-04T13:34:19;51.22;;;8.30;;
53879;SDS011;39791;53.184;5.486;2023-01-04T13:37:46;57.35;;;8.82;;
53879;SDS011;39791;53.184;5.486;2023-01-04T13:42:26;51.55;;;8.07;;
53879;SDS011;39791;53.184;5.486;2023-01-04T13:47:55;56.90;;;9.27;;
53879;SDS011;39791;53.184;5.486;2023-01-04T13:50:26;46.10;;;8.80;;
53879;SDS011;39791;53.184;5.486;2023-01-04T13:55:26;40.80;;;6.85;;
53879;SDS011;39791;53.184;5.486;2023-01-04T13:57:55;41.40;;;6.97;;
53879;SDS011;39791;53.184;5.486;2023-01-04T14:00:26;48.40;;;8.73;;
53879;SDS011;39791;53.184;5.486;2023-01-04T14:03:56;54.42;;;8.70;;
53879;SDS011;39791;53.184;5.486;2023-01-04T14:06:41;34.40;;;6.72;;
53879;SDS011;39791;53.184;5.486;2023-01-04T14:09:03;49.90;;;9.25;;
53879;SDS011;39791;53.184;5.486;2023-01-04T14:11:34;47.60;;;7.78;;
53879;SDS011;39791;53.184;5.486;2023-01-04T14:19:43;49.75;;;8.38;;
53879;SDS011;39791;53.184;5.486;2023-01-04T14:27:53;50.05;;;8.10;;
53879;SDS011;39791;53.184;5.486;2023-01-04T14:30:41;56.40;;;7.90;;
53879;SDS011;39791;53.184;5.486;2023-01-04T14:33:29;39.92;;;7.70;;
53879;SDS011;39791;53.184;5.486;2023-01-04T14:38:37;53.33;;;8.18;;
53879;SDS011;39791;53.184;5.486;2023-01-04T14:41:09;34.63;;;7.70;;
53879;SDS011;39791;53.184;5.486;2023-01-04T14:43:48;60.63;;;8.98;;
53879;SDS011;39791;53.184;5.486;2023-01-04T14:46:18;47.05;;;7.43;;
53879;SDS011;39791;53.184;5.486;2023-01-04T14:48:44;50.17;;;8.25;;
53879;SDS011;39791;53.184;5.486;2023-01-04T14:51:17;51.38;;;9.02;;
53879;SDS011;39791;53.184;5.486;2023-01-04T14:53:45;45.22;;;7.95;;
53879;SDS011;39791;53.184;5.486;2023-01-04T14:56:14;36.25;;;7.15;;
53879;SDS011;39791;53.184;5.486;2023-01-04T14:58:41;51.45;;;7.90;;
53879;SDS011;39791;53.184;5.486;2023-01-04T15:01:08;37.83;;;8.48;;
53879;SDS011;39791;53.184;5.486;2023-01-04T15:03:34;43.00;;;6.97;;
53879;SDS011;39791;53.184;5.486;2023-01-04T15:06:00;46.65;;;8.45;;
53879;SDS011;39791;53.184;5.486;2023-01-04T15:08:26;55.22;;;9.10;;
53879;SDS011;39791;53.184;5.486;2023-01-04T15:10:51;59.25;;;8.50;;
53879;SDS011;39791;53.184;5.486;2023-01-04T15:13:17;53.53;;;8.80;;
53879;SDS011;39791;53.184;5.486;2023-01-04T15:15:43;43.75;;;8.20;;
53879;SDS011;39791;53.184;5.486;2023-01-04T15:18:08;40.85;;;8.07;;
53879;SDS011;39791;53.184;5.486;2023-01-04T15:20:34;54.80;;;9.13;;
53879;SDS011;39791;53.184;5.486;2023-01-04T15:23:03;43.08;;;7.80;;
53879;SDS011;39791;53.184;5.486;2023-01-04T15:25:28;53.20;;;9.23;;
53879;SDS011;39791;53.184;5.486;2023-01-04T15:27:54;56.30;;;9.02;;
53879;SDS011;39791;53.184;5.486;2023-01-04T15:30:20;45.58;;;8.40;;
53879;SDS011;39791;53.184;5.486;2023-01-04T15:32:45;50.08;;;7.50;;
53879;SDS011;39791;53.184;5.486;2023-01-04T15:35:11;49.60;;;9.52;;
53879;SDS011;39791;53.184;5.486;2023-01-04T15:37:40;62.88;;;9.98;;
53879;SDS011;39791;53.184;5.486;2023-01-04T15:40:10;62.40;;;10.55;;
53879;SDS011;39791;53.184;5.486;2023-01-04T15:42:38;53.35;;;9.30;;
53879;SDS011;39791;53.184;5.486;2023-01-04T15:45:22;47.13;;;8.57;;
53879;SDS011;39791;53.184;5.486;2023-01-04T15:47:58;49.13;;;8.60;;
53879;SDS011;39791;53.184;5.486;2023-01-04T15:50:28;44.53;;;8.13;;
53879;SDS011;39791;53.184;5.486;2023-01-04T15:52:54;51.30;;;9.02;;
53879;SDS011;39791;53.184;5.486;2023-01-04T15:55:21;59.00;;;8.80;;
53879;SDS011;39791;53.184;5.486;2023-01-04T15:57:46;59.30;;;10.43;;
53879;SDS011;39791;53.184;5.486;2023-01-04T16:00:12;49.72;;;7.70;;
53879;SDS011;39791;53.184;5.486;2023-01-04T16:02:38;61.78;;;9.43;;
53879;SDS011;39791;53.184;5.486;2023-01-04T16:05:04;59.95;;;9.25;;
53879;SDS011;39791;53.184;5.486;2023-01-04T16:07:30;40.33;;;8.18;;
53879;SDS011;39791;53.184;5.486;2023-01-04T16:09:55;42.20;;;7.28;;
53879;SDS011;39791;53.184;5.486;2023-01-04T16:12:21;41.65;;;8.48;;
53879;SDS011;39791;53.184;5.486;2023-01-04T16:15:06;55.67;;;9.05;;
53879;SDS011;39791;53.184;5.486;2023-01-04T16:17:50;48.97;;;8.40;;
53879;SDS011;39791;53.184;5.486;2023-01-04T16:20:16;50.92;;;8.60;;
53879;SDS011;39791;53.184;5.486;2023-01-04T16:22:42;56.20;;;8.63;;
53879;SDS011;39791;53.184;5.486;2023-01-04T16:25:08;49.40;;;8.00;;
53879;SDS011;39791;53.184;5.486;2023-01-04T16:27:34;55.75;;;9.20;;
53879;SDS011;39791;53.184;5.486;2023-01-04T16:30:03;37.65;;;7.45;;
53879;SDS011;39791;53.184;5.486;2023-01-04T16:32:30;48.00;;;8.13;;
53879;SDS011;39791;53.184;5.486;2023-01-04T16:34:56;42.55;;;8.23;;
53879;SDS011;39791;53.184;5.486;2023-01-04T16:37:24;57.25;;;9.15;;
53879;SDS011;39791;53.184;5.486;2023-01-04T16:39:52;58.05;;;9.07;;
53879;SDS011;39791;53.184;5.486;2023-01-04T16:42:17;51.17;;;8.23;;
53879;SDS011;39791;53.184;5.486;2023-01-04T16:44:43;49.45;;;9.23;;
53879;SDS011;39791;53.184;5.486;2023-01-04T16:47:09;51.80;;;7.90;;
53879;SDS011;39791;53.184;5.486;2023-01-04T16:49:35;36.53;;;5.88;;
53879;SDS011;39791;53.184;5.486;2023-01-04T16:52:00;61.80;;;9.20;;